createdAt,value
2022-08-19T00:01:59.007Z,75.38
2022-08-19T00:04:36.440Z,75.68
2022-08-19T00:07:08.875Z,75.71
2022-08-19T00:09:42.007Z,75.40
2022-08-19T00:12:14.522Z,75.72
2022-08-19T00:14:47.009Z,75.69
2022-08-19T00:17:19.412Z,76.71
2022-08-19T00:19:51.881Z,77.49
2022-08-19T00:22:24.487Z,77.89
2022-08-19T00:24:57.575Z,77.83
2022-08-19T00:27:30.006Z,78.17
2022-08-19T00:30:03.816Z,77.83
2022-08-19T00:32:36.647Z,77.98
2022-08-19T00:35:10.363Z,78.23
2022-08-19T00:37:43.565Z,78.10
2022-08-19T00:40:18.549Z,78.29
2022-08-19T00:42:54.161Z,78.21
2022-08-19T00:45:32.578Z,78.13
2022-08-19T00:48:14.672Z,77.90
2022-08-19T00:50:52.077Z,77.25
2022-08-19T00:53:28.256Z,77.21
2022-08-19T00:56:03.490Z,77.87
2022-08-19T00:58:36.671Z,78.08
2022-08-19T01:01:09.235Z,78.31
2022-08-19T01:03:58.108Z,78.39
2022-08-19T01:06:32.837Z,78.56
2022-08-19T01:09:06.078Z,78.71
2022-08-19T01:11:43.815Z,78.20
2022-08-19T01:14:17.144Z,78.48
2022-08-19T01:16:54.806Z,78.22
2022-08-19T01:19:32.231Z,78.43
2022-08-19T01:22:28.784Z,78.21
2022-08-19T01:25:04.436Z,78.15
2022-08-19T01:27:48.530Z,78.25
2022-08-19T01:30:24.150Z,78.31
2022-08-19T01:32:57.488Z,78.40
2022-08-19T01:35:32.527Z,78.70
2022-08-19T01:38:07.979Z,78.51
2022-08-19T01:40:42.399Z,78.28
2022-08-19T01:43:15.437Z,78.49
2022-08-19T01:45:47.891Z,78.74
2022-08-19T01:48:20.420Z,78.85
2022-08-19T01:50:52.846Z,79.21
2022-08-19T01:53:26.651Z,79.26
2022-08-19T01:56:05.561Z,79.85
2022-08-19T01:58:42.222Z,80.14
2022-08-19T02:01:14.643Z,80.38
2022-08-19T02:03:47.238Z,80.62
2022-08-19T02:06:20.548Z,80.64
2022-08-19T02:08:59.702Z,80.66
2022-08-19T02:11:34.642Z,80.77
2022-08-19T02:14:08.627Z,80.76
2022-08-19T02:16:41.119Z,80.80
2022-08-19T02:19:13.854Z,81.19
2022-08-19T02:21:46.850Z,81.30
2022-08-19T02:24:19.320Z,81.35
2022-08-19T02:26:52.433Z,81.75
2022-08-19T02:29:25.091Z,82.02
2022-08-19T02:31:57.500Z,82.15
2022-08-19T02:34:29.939Z,82.07
2022-08-19T02:37:03.924Z,81.95
2022-08-19T02:39:36.213Z,81.38
2022-08-19T02:42:09.313Z,81.73
2022-08-19T02:44:41.755Z,81.83
2022-08-19T02:47:14.683Z,81.58
2022-08-19T02:49:50.199Z,81.86
2022-08-19T02:52:23.627Z,81.92
2022-08-19T02:54:57.830Z,82.05
2022-08-19T02:57:32.303Z,82.71
2022-08-19T03:00:06.732Z,82.64
2022-08-19T03:02:39.171Z,82.44
2022-08-19T03:05:11.673Z,82.73
2022-08-19T03:07:44.095Z,83.19
2022-08-19T03:10:16.588Z,83.25
2022-08-19T03:12:49.634Z,83.29
2022-08-19T03:15:22.191Z,83.50
2022-08-19T03:17:54.710Z,83.40
2022-08-19T03:20:27.203Z,83.49
2022-08-19T03:22:59.589Z,83.54
2022-08-19T03:25:36.674Z,83.67
2022-08-19T03:28:11.067Z,83.38
2022-08-19T03:30:56.785Z,83.42
2022-08-19T03:33:30.827Z,83.49
2022-08-19T03:36:07.935Z,83.91
2022-08-19T03:38:43.764Z,84.26
2022-08-19T03:41:18.819Z,84.01
2022-08-19T03:43:53.534Z,84.44
2022-08-19T03:46:29.352Z,83.88
2022-08-19T03:49:07.647Z,83.99
2022-08-19T03:51:40.112Z,83.78
2022-08-19T03:54:14.555Z,83.76
2022-08-19T03:56:49.474Z,83.93
2022-08-19T03:59:26.188Z,83.80
2022-08-19T04:02:01.506Z,84.03
2022-08-19T04:04:33.910Z,83.77
2022-08-19T04:07:07.143Z,84.07
2022-08-19T04:09:39.514Z,84.26
2022-08-19T04:12:11.958Z,84.34
2022-08-19T04:14:44.989Z,84.16
2022-08-19T04:17:17.438Z,84.62
2022-08-19T04:19:49.948Z,84.63
2022-08-19T04:22:22.423Z,84.46
2022-08-19T04:24:54.829Z,83.89
2022-08-19T04:27:27.331Z,83.76
2022-08-19T04:30:00.413Z,84.10
2022-08-19T04:32:32.898Z,83.42
2022-08-19T04:35:17.863Z,83.51
2022-08-19T04:37:51.781Z,83.04
2022-08-19T04:40:42.242Z,84.16
2022-08-19T04:43:15.990Z,84.55
2022-08-19T04:45:49.039Z,83.97
2022-08-19T04:48:27.757Z,83.79
2022-08-19T04:51:00.456Z,84.47
2022-08-19T04:53:37.441Z,85.27
2022-08-19T04:56:12.541Z,84.71
2022-08-19T04:58:46.241Z,83.75
2022-08-19T05:01:21.112Z,83.43
2022-08-19T05:03:53.643Z,83.13
2022-08-19T05:06:26.041Z,82.67
2022-08-19T05:08:58.496Z,83.57
2022-08-19T05:11:34.068Z,82.46
2022-08-19T05:14:06.594Z,81.97
2022-08-19T05:16:40.685Z,82.13
2022-08-19T05:19:31.344Z,82.52
2022-08-19T05:22:24.419Z,81.19
2022-08-19T05:25:12.322Z,81.45
2022-08-19T05:27:46.335Z,82.50
2022-08-19T05:30:18.879Z,82.86
2022-08-19T05:33:09.667Z,83.31
2022-08-19T05:35:42.278Z,83.89
2022-08-19T05:38:14.643Z,83.46
2022-08-19T05:40:49.639Z,82.74
2022-08-19T05:43:22.083Z,82.46
2022-08-19T05:45:54.526Z,82.56
2022-08-19T05:48:28.523Z,82.69
2022-08-19T05:51:06.423Z,81.31
2022-08-19T05:53:38.990Z,80.71
2022-08-19T05:56:16.250Z,79.91
2022-08-19T05:58:49.145Z,78.43
2022-08-19T06:01:21.934Z,77.45
2022-08-19T06:03:55.354Z,75.35
2022-08-19T06:06:27.833Z,74.91
2022-08-19T06:09:00.499Z,73.03
2022-08-19T06:11:35.709Z,69.42
2022-08-19T06:14:16.721Z,68.32
2022-08-19T06:16:51.518Z,65.15
2022-08-19T06:19:25.589Z,62.29
2022-08-19T06:21:59.791Z,61.53
2022-08-19T06:24:32.424Z,61.20
2022-08-19T06:27:06.093Z,60.92
2022-08-19T06:29:39.142Z,60.30
2022-08-19T06:32:11.612Z,59.55
2022-08-19T06:34:44.752Z,60.17
2022-08-19T06:37:17.472Z,56.62
2022-08-19T06:39:50.958Z,57.83
2022-08-19T06:42:23.851Z,56.01
2022-08-19T06:44:56.471Z,52.24
2022-08-19T06:47:29.259Z,52.00
2022-08-19T06:50:03.591Z,51.56
2022-08-19T06:52:38.240Z,52.41
2022-08-19T06:55:10.947Z,50.64
2022-08-19T06:57:46.446Z,50.31
2022-08-19T07:00:19.085Z,50.28
2022-08-19T07:02:54.273Z,50.75
2022-08-19T07:05:30.460Z,49.47
2022-08-19T07:08:05.134Z,49.62
2022-08-19T07:10:37.590Z,47.76
2022-08-19T07:13:15.614Z,47.79
2022-08-19T07:15:49.738Z,46.70
2022-08-19T07:18:23.223Z,46.76
2022-08-19T07:21:04.304Z,44.80
2022-08-19T07:26:16.698Z,44.12
2022-08-19T07:28:52.820Z,42.94
2022-08-19T07:31:27.818Z,42.88
2022-08-19T07:34:07.117Z,41.26
2022-08-19T07:36:42.226Z,41.83
2022-08-19T07:39:17.417Z,41.40
2022-08-19T07:41:50.874Z,40.79
2022-08-19T07:44:24.054Z,40.21
2022-08-19T07:46:59.160Z,40.29
2022-08-19T07:49:31.999Z,39.40
2022-08-19T07:52:08.058Z,39.29
2022-08-19T07:54:41.431Z,38.70
2022-08-19T07:57:14.030Z,37.92
2022-08-19T07:59:46.478Z,37.84
2022-08-19T08:02:18.857Z,36.66
2022-08-19T08:05:09.426Z,36.43
2022-08-19T08:08:00.851Z,37.33
2022-08-19T08:10:33.398Z,35.95
2022-08-19T08:13:09.660Z,34.58
2022-08-19T08:15:44.813Z,35.15
2022-08-19T08:18:17.547Z,34.40
2022-08-19T08:20:50.030Z,34.51
2022-08-19T08:23:25.181Z,33.38
2022-08-19T08:25:59.407Z,32.93
2022-08-19T08:28:32.328Z,32.77
2022-08-19T08:31:09.490Z,33.17
2022-08-19T08:33:42.632Z,33.21
2022-08-19T08:36:15.528Z,33.14
2022-08-19T08:38:48.606Z,31.12
2022-08-19T08:41:28.944Z,31.33
2022-08-19T08:44:04.387Z,31.63
2022-08-19T08:46:41.235Z,30.75
2022-08-19T08:49:24.746Z,31.40
2022-08-19T08:52:02.566Z,30.50
2022-08-19T08:54:40.280Z,30.92
2022-08-19T08:57:16.199Z,30.36
2022-08-19T08:59:52.031Z,31.57
2022-08-19T09:02:26.704Z,30.55
2022-08-19T09:04:59.276Z,29.15
2022-08-19T09:07:47.623Z,29.90
2022-08-19T09:10:29.371Z,29.76
2022-08-19T09:13:11.384Z,29.72
2022-08-19T09:15:46.419Z,28.81
2022-08-19T09:18:20.185Z,28.51
2022-08-19T09:20:53.207Z,28.67
2022-08-19T09:23:26.788Z,28.41
2022-08-19T09:26:00.285Z,28.73
2022-08-19T09:28:32.775Z,26.90
2022-08-19T09:31:05.460Z,27.82
2022-08-19T09:33:38.403Z,27.87
2022-08-19T09:36:14.075Z,26.73
2022-08-19T09:38:56.798Z,27.78
2022-08-19T09:41:31.715Z,26.90
2022-08-19T09:44:06.951Z,26.29
2022-08-19T09:46:39.446Z,26.59
2022-08-19T09:49:11.858Z,26.91
2022-08-19T09:51:51.269Z,25.75
2022-08-19T09:54:24.797Z,26.17
2022-08-19T09:57:00.851Z,26.04
2022-08-19T09:59:36.374Z,26.74
2022-08-19T10:02:10.627Z,24.67
2022-08-19T10:05:01.755Z,25.03
2022-08-19T10:07:36.340Z,24.06
2022-08-19T10:10:09.963Z,23.67
2022-08-19T10:12:48.824Z,23.70
2022-08-19T10:15:28.762Z,24.06
2022-08-19T10:18:02.234Z,24.21
2022-08-19T10:20:35.810Z,23.73
2022-08-19T10:23:08.319Z,22.54
2022-08-19T10:25:40.795Z,24.98
2022-08-19T10:28:19.308Z,23.84
2022-08-19T10:30:52.698Z,24.22
2022-08-19T10:33:38.758Z,23.64
2022-08-19T10:36:20.631Z,24.17
2022-08-19T10:38:57.183Z,22.26
2022-08-19T10:41:33.851Z,22.77
2022-08-19T10:44:09.775Z,23.09
2022-08-19T10:46:48.840Z,22.72
2022-08-19T10:49:21.546Z,21.03
2022-08-19T10:52:18.612Z,22.01
2022-08-19T10:55:11.323Z,22.33
2022-08-19T10:58:01.866Z,22.16
2022-08-19T11:00:35.839Z,21.75
2022-08-19T11:03:10.530Z,22.29
2022-08-19T11:05:42.964Z,21.80
2022-08-19T11:08:22.115Z,21.73
2022-08-19T11:11:00.912Z,22.66
2022-08-19T11:13:37.051Z,22.28
2022-08-19T11:16:13.568Z,22.45
2022-08-19T11:18:48.522Z,22.82
2022-08-19T11:21:23.264Z,22.35
2022-08-19T11:23:58.147Z,22.23
2022-08-19T11:26:31.687Z,21.82
2022-08-19T11:29:06.424Z,22.08
2022-08-19T11:31:41.746Z,23.09
2022-08-19T11:34:18.033Z,22.58
2022-08-19T11:36:51.667Z,22.55
2022-08-19T11:39:25.223Z,22.00
2022-08-19T11:41:59.543Z,21.48
2022-08-19T11:44:32.017Z,21.89
2022-08-19T11:47:09.046Z,20.91
2022-08-19T11:49:42.597Z,22.18
2022-08-19T11:52:15.335Z,22.07
2022-08-19T11:54:47.854Z,23.15
2022-08-19T11:57:20.282Z,22.60
2022-08-19T11:59:53.295Z,22.85
2022-08-19T12:02:26.470Z,23.44
2022-08-19T12:04:59.171Z,23.17
2022-08-19T12:07:33.377Z,22.71
2022-08-19T12:10:06.491Z,23.16
2022-08-19T12:12:42.748Z,23.53
2022-08-19T12:15:15.555Z,21.99
2022-08-19T12:17:48.685Z,21.73
2022-08-19T12:20:21.386Z,23.36
2022-08-19T12:22:53.787Z,22.47
2022-08-19T12:25:26.218Z,22.17
2022-08-19T12:27:59.222Z,23.43
2022-08-19T12:30:32.008Z,22.42
2022-08-19T12:33:05.282Z,23.18
2022-08-19T12:35:45.181Z,22.56
2022-08-19T12:38:18.632Z,22.69
2022-08-19T12:40:52.845Z,22.26
2022-08-19T12:43:27.068Z,22.21
2022-08-19T12:45:59.955Z,22.21
2022-08-19T12:48:35.051Z,23.84
2022-08-19T12:51:10.379Z,22.88
2022-08-19T12:53:43.582Z,22.90
2022-08-19T12:56:17.518Z,23.03
2022-08-19T12:58:52.944Z,23.52
2022-08-19T13:01:25.719Z,23.72
2022-08-19T13:03:59.003Z,23.66
2022-08-19T13:06:31.442Z,23.30
2022-08-19T13:09:04.083Z,24.04
2022-08-19T13:11:37.443Z,24.01
2022-08-19T13:14:11.494Z,23.45
2022-08-19T13:16:44.017Z,23.60
2022-08-19T13:19:21.193Z,24.47
2022-08-19T13:21:57.740Z,24.72
2022-08-19T13:24:33.927Z,24.09
2022-08-19T13:27:07.221Z,24.99
2022-08-19T13:29:58.676Z,25.81
2022-08-19T13:32:49.717Z,25.53
2022-08-19T13:35:22.965Z,24.99
2022-08-19T13:37:55.592Z,24.97
2022-08-19T13:40:30.564Z,25.56
2022-08-19T13:43:17.699Z,25.05
2022-08-19T13:45:56.142Z,25.48
2022-08-19T13:48:28.695Z,24.80
2022-08-19T13:51:01.800Z,24.94
2022-08-19T13:53:34.238Z,24.99
2022-08-19T13:56:07.579Z,24.96
2022-08-19T13:58:40.645Z,25.93
2022-08-19T14:01:13.085Z,25.72
2022-08-19T14:03:46.180Z,24.83
2022-08-19T14:06:21.635Z,25.45
2022-08-19T14:08:54.043Z,25.08
2022-08-19T14:11:26.503Z,26.09
2022-08-19T14:13:59.238Z,25.54
2022-08-19T14:16:31.671Z,24.73
2022-08-19T14:19:04.357Z,24.89
2022-08-19T14:21:41.411Z,25.49
2022-08-19T14:24:14.110Z,25.80
2022-08-19T14:26:46.471Z,25.97
2022-08-19T14:29:19.322Z,26.15
2022-08-19T14:31:51.882Z,26.72
2022-08-19T14:34:24.353Z,26.38
2022-08-19T14:36:57.709Z,26.40
2022-08-19T14:39:30.167Z,26.68
2022-08-19T14:42:11.266Z,27.58
2022-08-19T14:44:44.642Z,26.96
2022-08-19T14:47:17.299Z,27.80
2022-08-19T14:49:49.774Z,27.01
2022-08-19T14:52:23.463Z,26.72
2022-08-19T14:54:55.884Z,25.96
2022-08-19T14:57:28.369Z,26.52
2022-08-19T15:00:00.985Z,26.93
2022-08-19T15:02:35.444Z,28.15
2022-08-19T15:05:09.059Z,27.98
2022-08-19T15:07:42.146Z,27.88
2022-08-19T15:10:15.762Z,28.29
2022-08-19T15:12:51.602Z,28.53
2022-08-19T15:15:24.475Z,27.88
2022-08-19T15:18:02.419Z,27.34
2022-08-19T15:20:35.079Z,27.85
2022-08-19T15:23:08.161Z,28.46
2022-08-19T15:25:41.710Z,27.68
2022-08-19T15:28:15.656Z,27.42
2022-08-19T15:30:48.542Z,27.39
2022-08-19T15:33:20.955Z,27.61
2022-08-19T15:35:53.466Z,28.38
2022-08-19T15:38:26.679Z,29.17
2022-08-19T15:41:19.378Z,27.99
2022-08-19T15:43:54.806Z,28.15
2022-08-19T15:46:30.301Z,27.91
2022-08-19T15:49:03.389Z,27.18
2022-08-19T15:51:38.498Z,29.33
2022-08-19T15:54:13.436Z,30.83
2022-08-19T15:57:06.253Z,31.08
2022-08-19T15:59:59.975Z,32.57
2022-08-19T16:02:55.382Z,32.17
2022-08-19T16:05:45.893Z,32.49
2022-08-19T16:08:18.471Z,33.26
2022-08-19T16:10:51.506Z,33.61
2022-08-19T16:13:23.954Z,33.90
2022-08-19T16:15:57.262Z,34.21
2022-08-19T16:18:30.122Z,34.48
2022-08-19T16:21:02.503Z,35.45
2022-08-19T16:23:35.435Z,35.82
2022-08-19T16:26:08.854Z,36.73
2022-08-19T16:28:42.219Z,37.94
2022-08-19T16:31:15.436Z,38.85
2022-08-19T16:33:48.122Z,39.07
2022-08-19T16:36:23.456Z,39.04
2022-08-19T16:38:56.003Z,38.06
2022-08-19T16:41:29.084Z,38.52
2022-08-19T16:44:01.671Z,37.75
2022-08-19T16:46:34.081Z,38.00
2022-08-19T16:49:07.131Z,38.24
2022-08-19T16:51:39.609Z,38.14
2022-08-19T16:54:12.600Z,38.91
2022-08-19T16:56:45.743Z,38.19
2022-08-19T16:59:18.207Z,37.78
2022-08-19T17:01:51.655Z,39.08
2022-08-19T17:04:24.621Z,39.33
2022-08-19T17:06:57.005Z,40.46
2022-08-19T17:09:29.390Z,40.85
2022-08-19T17:12:05.899Z,38.95
2022-08-19T17:14:41.617Z,39.69
2022-08-19T17:17:16.339Z,41.85
2022-08-19T17:19:49.205Z,42.24
2022-08-19T17:22:21.607Z,42.35
2022-08-19T17:24:56.051Z,41.57
2022-08-19T17:27:32.110Z,42.82
2022-08-19T17:30:06.318Z,43.26
2022-08-19T17:32:38.778Z,44.40
2022-08-19T17:35:11.490Z,44.67
2022-08-19T17:37:43.846Z,44.27
2022-08-19T17:40:19.728Z,45.43
2022-08-19T17:42:57.122Z,45.40
2022-08-19T17:45:29.630Z,44.77
2022-08-19T17:48:02.158Z,44.57
2022-08-19T17:50:35.483Z,44.02
2022-08-19T17:53:07.930Z,41.80
2022-08-19T17:55:48.005Z,41.83
2022-08-19T17:58:22.001Z,40.43
2022-08-19T18:00:55.606Z,40.48
2022-08-19T18:03:29.723Z,40.57
2022-08-19T18:06:02.206Z,39.11
2022-08-19T18:08:37.740Z,38.83
2022-08-19T18:11:10.717Z,39.06
2022-08-19T18:13:43.779Z,38.37
2022-08-19T18:16:18.085Z,39.31
2022-08-19T18:18:51.952Z,40.19
2022-08-19T18:21:30.200Z,40.52
2022-08-19T18:24:02.946Z,40.68
2022-08-19T18:26:35.379Z,40.68
2022-08-19T18:29:09.062Z,39.82
2022-08-19T18:31:42.910Z,38.75
2022-08-19T18:34:15.394Z,39.07
2022-08-19T18:36:53.910Z,38.34
2022-08-19T18:39:45.268Z,38.53
2022-08-19T18:42:36.768Z,38.45
2022-08-19T18:45:29.250Z,38.84
2022-08-19T18:48:27.259Z,39.97
2022-08-19T18:51:01.839Z,40.12
2022-08-19T18:53:37.098Z,39.87
2022-08-19T18:56:12.508Z,39.55
2022-08-19T18:58:45.732Z,39.29
2022-08-19T19:01:21.651Z,38.93
2022-08-19T19:03:55.441Z,38.82
2022-08-19T19:06:30.449Z,39.38
2022-08-19T19:09:04.147Z,39.32
2022-08-19T19:11:41.695Z,39.94
2022-08-19T19:14:32.849Z,39.66
2022-08-19T19:17:14.193Z,40.38
2022-08-19T19:19:46.668Z,40.34
2022-08-19T19:22:21.690Z,40.78
2022-08-19T19:24:54.708Z,41.14
2022-08-19T19:27:27.070Z,40.51
2022-08-19T19:29:59.453Z,41.96
2022-08-19T19:32:39.102Z,43.09
2022-08-19T19:35:11.876Z,43.53
2022-08-19T19:37:44.635Z,43.68
2022-08-19T19:40:17.303Z,43.81
2022-08-19T19:42:51.219Z,43.57
2022-08-19T19:45:24.223Z,44.44
2022-08-19T19:47:57.870Z,44.60
2022-08-19T19:50:30.590Z,45.49
2022-08-19T19:53:03.264Z,45.89
2022-08-19T19:55:35.930Z,44.51
2022-08-19T19:58:08.654Z,45.32
2022-08-19T20:00:41.194Z,43.85
2022-08-19T20:03:16.647Z,46.09
2022-08-19T20:05:49.223Z,47.42
2022-08-19T20:08:41.425Z,46.91
2022-08-19T20:11:26.114Z,48.27
2022-08-19T20:14:01.161Z,48.74
2022-08-19T20:16:33.631Z,49.43
2022-08-19T20:19:07.853Z,49.58
2022-08-19T20:21:43.175Z,49.20
2022-08-19T20:24:18.710Z,50.35
2022-08-19T20:26:53.410Z,50.11
2022-08-19T20:29:38.908Z,51.74
2022-08-19T20:32:13.788Z,52.87
2022-08-19T20:34:48.397Z,53.01
2022-08-19T20:37:20.795Z,53.11
2022-08-19T20:39:53.336Z,53.70
2022-08-19T20:42:25.808Z,53.82
2022-08-19T20:44:58.314Z,54.06
2022-08-19T20:47:32.091Z,53.77
2022-08-19T20:50:06.819Z,54.71
2022-08-19T20:52:39.294Z,54.76
2022-08-19T20:55:14.149Z,55.44
2022-08-19T20:57:49.467Z,55.41
2022-08-19T21:00:21.931Z,56.11
2022-08-19T21:02:54.380Z,55.97
2022-08-19T21:05:30.614Z,56.63
2022-08-19T21:08:03.933Z,56.53
2022-08-19T21:10:39.396Z,56.46
2022-08-19T21:13:15.045Z,57.31
2022-08-19T21:15:47.951Z,58.04
2022-08-19T21:18:22.918Z,57.66
2022-08-19T21:20:56.314Z,58.28
2022-08-19T21:23:30.388Z,58.00
2022-08-19T21:26:02.931Z,58.53
2022-08-19T21:28:36.451Z,59.33
2022-08-19T21:31:10.005Z,59.86
2022-08-19T21:33:42.631Z,60.20
2022-08-19T21:36:16.642Z,60.73
2022-08-19T21:38:49.067Z,60.69
2022-08-19T21:41:21.838Z,60.84
2022-08-19T21:43:54.278Z,60.71
2022-08-19T21:46:27.726Z,62.12
2022-08-19T21:49:00.159Z,61.83
2022-08-19T21:51:33.234Z,61.90
2022-08-19T21:54:05.810Z,62.54
2022-08-19T21:56:39.335Z,62.74
2022-08-19T21:59:11.864Z,63.64
2022-08-19T22:01:48.847Z,64.28
2022-08-19T22:04:24.504Z,64.69
2022-08-19T22:06:59.563Z,65.27
2022-08-19T22:09:32.132Z,64.43
2022-08-19T22:12:04.726Z,65.22
2022-08-19T22:14:37.430Z,65.53
2022-08-19T22:17:09.831Z,64.96
2022-08-19T22:19:42.274Z,65.53
2022-08-19T22:22:23.339Z,65.45
2022-08-19T22:25:06.843Z,64.90
2022-08-19T22:27:39.298Z,65.86
2022-08-19T22:30:15.117Z,65.78
2022-08-19T22:32:54.845Z,65.93
2022-08-19T22:35:32.479Z,65.76
2022-08-19T22:38:07.325Z,66.30
2022-08-19T22:40:42.990Z,66.51
2022-08-19T22:43:18.381Z,66.79
2022-08-19T22:45:52.879Z,66.95
2022-08-19T22:48:28.099Z,67.06
2022-08-19T22:51:19.197Z,66.34
2022-08-19T22:53:52.251Z,67.46
2022-08-19T22:56:24.719Z,67.68
2022-08-19T22:58:57.486Z,68.09
2022-08-19T23:01:30.865Z,68.56
2022-08-19T23:04:04.867Z,69.34
2022-08-19T23:06:41.483Z,69.58
2022-08-19T23:09:16.864Z,68.61
2022-08-19T23:11:49.627Z,68.89
2022-08-19T23:14:22.023Z,69.28
2022-08-19T23:16:58.760Z,69.81
2022-08-19T23:19:32.357Z,69.83
2022-08-19T23:22:04.959Z,69.31
2022-08-19T23:24:38.043Z,69.62
2022-08-19T23:27:28.613Z,70.24
2022-08-19T23:30:24.699Z,70.13
2022-08-19T23:33:00.239Z,70.02
2022-08-19T23:35:36.012Z,70.69
2022-08-19T23:38:09.106Z,70.13
2022-08-19T23:40:42.315Z,69.97
2022-08-19T23:43:20.884Z,70.37
2022-08-19T23:45:57.647Z,69.98
2022-08-19T23:48:35.125Z,69.59
2022-08-19T23:51:09.343Z,69.72
2022-08-19T23:53:42.367Z,70.01
2022-08-19T23:56:15.487Z,70.64
2022-08-19T23:58:48.383Z,70.28
